sensor_id;sensor_type;location;lat;lon;timestamp;P1;durP1;ratioP1;P2;durP2;ratioP2
6019;SDS011;3038;51.122;6.840;2022-11-23T00:01:23;4.77;;;1.67;;
6019;SDS011;3038;51.122;6.840;2022-11-23T00:03:51;6.70;;;1.40;;
6019;SDS011;3038;51.122;6.840;2022-11-23T00:07:16;1.70;;;1.17;;
6019;SDS011;3038;51.122;6.840;2022-11-23T00:10:32;3.87;;;1.20;;
6019;SDS011;3038;51.122;6.840;2022-11-23T00:13:25;3.53;;;1.40;;
6019;SDS011;3038;51.122;6.840;2022-11-23T00:16:41;2.10;;;1.10;;
6019;SDS011;3038;51.122;6.840;2022-11-23T00:24:44;1.40;;;1.17;;
6019;SDS011;3038;51.122;6.840;2022-11-23T00:28:24;2.37;;;1.33;;
6019;SDS011;3038;51.122;6.840;2022-11-23T00:35:10;1.70;;;1.17;;
6019;SDS011;3038;51.122;6.840;2022-11-23T00:38:41;2.70;;;1.10;;
6019;SDS011;3038;51.122;6.840;2022-11-23T00:41:32;2.10;;;1.10;;
6019;SDS011;3038;51.122;6.840;2022-11-23T00:44:15;6.73;;;1.60;;
6019;SDS011;3038;51.122;6.840;2022-11-23T00:47:22;2.53;;;1.30;;
6019;SDS011;3038;51.122;6.840;2022-11-23T00:53:46;3.60;;;0.90;;
6019;SDS011;3038;51.122;6.840;2022-11-23T00:59:55;2.83;;;1.13;;
6019;SDS011;3038;51.122;6.840;2022-11-23T01:02:25;1.93;;;0.93;;
6019;SDS011;3038;51.122;6.840;2022-11-23T01:04:59;1.80;;;1.20;;
6019;SDS011;3038;51.122;6.840;2022-11-23T01:11:14;3.40;;;1.50;;
6019;SDS011;3038;51.122;6.840;2022-11-23T01:25:41;1.10;;;0.67;;
6019;SDS011;3038;51.122;6.840;2022-11-23T01:28:07;3.00;;;1.00;;
6019;SDS011;3038;51.122;6.840;2022-11-23T01:34:35;3.00;;;1.13;;
6019;SDS011;3038;51.122;6.840;2022-11-23T01:55:35;1.60;;;1.27;;
6019;SDS011;3038;51.122;6.840;2022-11-23T01:59:14;1.43;;;1.00;;
6019;SDS011;3038;51.122;6.840;2022-11-23T02:02:46;1.13;;;1.00;;
6019;SDS011;3038;51.122;6.840;2022-11-23T02:05:39;3.37;;;1.10;;
6019;SDS011;3038;51.122;6.840;2022-11-23T02:08:09;2.40;;;1.10;;
6019;SDS011;3038;51.122;6.840;2022-11-23T02:14:47;2.03;;;1.00;;
6019;SDS011;3038;51.122;6.840;2022-11-23T02:24:06;3.70;;;3.43;;
6019;SDS011;3038;51.122;6.840;2022-11-23T02:27:01;2.60;;;1.07;;
6019;SDS011;3038;51.122;6.840;2022-11-23T02:37:11;3.07;;;1.70;;
6019;SDS011;3038;51.122;6.840;2022-11-23T02:40:34;3.53;;;1.10;;
6019;SDS011;3038;51.122;6.840;2022-11-23T02:43:35;4.33;;;2.83;;
6019;SDS011;3038;51.122;6.840;2022-11-23T02:48:48;3.67;;;1.80;;
6019;SDS011;3038;51.122;6.840;2022-11-23T02:55:36;2.37;;;1.40;;
6019;SDS011;3038;51.122;6.840;2022-11-23T02:58:59;3.10;;;1.13;;
6019;SDS011;3038;51.122;6.840;2022-11-23T03:01:36;3.20;;;1.17;;
6019;SDS011;3038;51.122;6.840;2022-11-23T03:04:04;4.30;;;1.40;;
6019;SDS011;3038;51.122;6.840;2022-11-23T03:10:01;3.10;;;1.50;;
6019;SDS011;3038;51.122;6.840;2022-11-23T03:12:30;6.40;;;1.60;;
6019;SDS011;3038;51.122;6.840;2022-11-23T03:14:55;7.53;;;1.50;;
6019;SDS011;3038;51.122;6.840;2022-11-23T03:17:21;3.10;;;2.00;;
6019;SDS011;3038;51.122;6.840;2022-11-23T03:19:52;2.10;;;1.50;;
6019;SDS011;3038;51.122;6.840;2022-11-23T03:22:52;1.80;;;1.10;;
6019;SDS011;3038;51.122;6.840;2022-11-23T03:28:31;5.67;;;1.43;;
6019;SDS011;3038;51.122;6.840;2022-11-23T03:30:57;4.47;;;1.53;;
6019;SDS011;3038;51.122;6.840;2022-11-23T03:34:12;4.43;;;1.70;;
6019;SDS011;3038;51.122;6.840;2022-11-23T03:37:18;3.23;;;1.30;;
6019;SDS011;3038;51.122;6.840;2022-11-23T03:39:50;5.77;;;1.87;;
6019;SDS011;3038;51.122;6.840;2022-11-23T03:42:16;3.00;;;1.57;;
6019;SDS011;3038;51.122;6.840;2022-11-23T03:44:42;2.63;;;1.70;;
6019;SDS011;3038;51.122;6.840;2022-11-23T03:47:07;7.43;;;1.80;;
6019;SDS011;3038;51.122;6.840;2022-11-23T03:49:45;7.53;;;2.10;;
6019;SDS011;3038;51.122;6.840;2022-11-23T03:52:11;3.40;;;1.70;;
6019;SDS011;3038;51.122;6.840;2022-11-23T03:54:40;5.53;;;1.67;;
6019;SDS011;3038;51.122;6.840;2022-11-23T03:57:05;4.77;;;3.70;;
6019;SDS011;3038;51.122;6.840;2022-11-23T03:59:31;5.47;;;1.90;;
6019;SDS011;3038;51.122;6.840;2022-11-23T04:01:56;3.90;;;1.50;;
6019;SDS011;3038;51.122;6.840;2022-11-23T04:04:22;6.10;;;1.97;;
6019;SDS011;3038;51.122;6.840;2022-11-23T04:06:51;4.37;;;1.80;;
6019;SDS011;3038;51.122;6.840;2022-11-23T04:09:22;8.47;;;2.10;;
6019;SDS011;3038;51.122;6.840;2022-11-23T04:11:56;3.90;;;1.67;;
6019;SDS011;3038;51.122;6.840;2022-11-23T04:14:34;4.33;;;1.60;;
6019;SDS011;3038;51.122;6.840;2022-11-23T04:17:00;8.83;;;2.53;;
6019;SDS011;3038;51.122;6.840;2022-11-23T04:19:28;7.20;;;2.47;;
6019;SDS011;3038;51.122;6.840;2022-11-23T04:21:57;5.17;;;2.30;;
6019;SDS011;3038;51.122;6.840;2022-11-23T04:24:26;3.77;;;1.83;;
6019;SDS011;3038;51.122;6.840;2022-11-23T04:27:15;3.60;;;1.80;;
6019;SDS011;3038;51.122;6.840;2022-11-23T04:33:27;3.97;;;2.00;;
6019;SDS011;3038;51.122;6.840;2022-11-23T04:36:06;5.90;;;2.63;;
6019;SDS011;3038;51.122;6.840;2022-11-23T04:38:36;7.07;;;2.20;;
6019;SDS011;3038;51.122;6.840;2022-11-23T04:41:15;6.37;;;2.17;;
6019;SDS011;3038;51.122;6.840;2022-11-23T04:44:08;6.07;;;1.70;;
6019;SDS011;3038;51.122;6.840;2022-11-23T04:46:54;5.03;;;1.70;;
6019;SDS011;3038;51.122;6.840;2022-11-23T04:49:20;12.97;;;2.20;;
6019;SDS011;3038;51.122;6.840;2022-11-23T04:51:45;6.67;;;2.20;;
6019;SDS011;3038;51.122;6.840;2022-11-23T04:54:11;6.23;;;2.10;;
6019;SDS011;3038;51.122;6.840;2022-11-23T04:56:37;6.13;;;1.93;;
6019;SDS011;3038;51.122;6.840;2022-11-23T04:59:03;4.13;;;1.87;;
6019;SDS011;3038;51.122;6.840;2022-11-23T05:01:29;8.17;;;3.97;;
6019;SDS011;3038;51.122;6.840;2022-11-23T05:07:28;2.63;;;1.67;;
6019;SDS011;3038;51.122;6.840;2022-11-23T05:10:06;10.73;;;2.20;;
6019;SDS011;3038;51.122;6.840;2022-11-23T05:12:44;7.30;;;2.20;;
6019;SDS011;3038;51.122;6.840;2022-11-23T05:15:11;3.30;;;1.53;;
6019;SDS011;3038;51.122;6.840;2022-11-23T05:17:43;4.53;;;1.63;;
6019;SDS011;3038;51.122;6.840;2022-11-23T05:20:10;5.40;;;1.80;;
6019;SDS011;3038;51.122;6.840;2022-11-23T05:23:08;8.87;;;1.80;;
6019;SDS011;3038;51.122;6.840;2022-11-23T05:25:34;3.60;;;1.73;;
6019;SDS011;3038;51.122;6.840;2022-11-23T05:28:00;5.33;;;3.57;;
6019;SDS011;3038;51.122;6.840;2022-11-23T05:31:16;7.40;;;2.07;;
6019;SDS011;3038;51.122;6.840;2022-11-23T05:34:02;3.90;;;1.60;;
6019;SDS011;3038;51.122;6.840;2022-11-23T05:39:53;5.93;;;2.00;;
6019;SDS011;3038;51.122;6.840;2022-11-23T05:42:42;3.80;;;1.43;;
6019;SDS011;3038;51.122;6.840;2022-11-23T05:45:33;3.57;;;1.80;;
6019;SDS011;3038;51.122;6.840;2022-11-23T05:48:36;4.80;;;1.93;;
6019;SDS011;3038;51.122;6.840;2022-11-23T05:51:16;2.23;;;1.20;;
6019;SDS011;3038;51.122;6.840;2022-11-23T05:54:24;4.50;;;2.00;;
6019;SDS011;3038;51.122;6.840;2022-11-23T05:56:59;8.83;;;2.43;;
6019;SDS011;3038;51.122;6.840;2022-11-23T05:59:31;3.23;;;1.97;;
6019;SDS011;3038;51.122;6.840;2022-11-23T06:02:49;3.73;;;1.70;;
6019;SDS011;3038;51.122;6.840;2022-11-23T06:05:24;5.90;;;2.43;;
6019;SDS011;3038;51.122;6.840;2022-11-23T06:07:51;13.63;;;2.37;;
6019;SDS011;3038;51.122;6.840;2022-11-23T06:10:23;3.43;;;2.23;;
6019;SDS011;3038;51.122;6.840;2022-11-23T06:13:37;4.37;;;2.00;;
6019;SDS011;3038;51.122;6.840;2022-11-23T06:19:44;5.00;;;2.00;;
6019;SDS011;3038;51.122;6.840;2022-11-23T06:22:13;5.10;;;2.37;;
6019;SDS011;3038;51.122;6.840;2022-11-23T06:24:40;6.10;;;2.70;;
6019;SDS011;3038;51.122;6.840;2022-11-23T06:27:06;4.83;;;1.77;;
6019;SDS011;3038;51.122;6.840;2022-11-23T06:29:32;10.57;;;2.30;;
6019;SDS011;3038;51.122;6.840;2022-11-23T06:31:58;4.97;;;2.33;;
6019;SDS011;3038;51.122;6.840;2022-11-23T06:34:29;7.80;;;2.33;;
6019;SDS011;3038;51.122;6.840;2022-11-23T06:36:55;6.23;;;2.23;;
6019;SDS011;3038;51.122;6.840;2022-11-23T06:39:21;5.90;;;2.47;;
6019;SDS011;3038;51.122;6.840;2022-11-23T06:44:53;11.00;;;2.77;;
6019;SDS011;3038;51.122;6.840;2022-11-23T06:47:40;7.90;;;2.17;;
6019;SDS011;3038;51.122;6.840;2022-11-23T06:50:08;4.23;;;1.93;;
6019;SDS011;3038;51.122;6.840;2022-11-23T06:52:56;3.93;;;2.23;;
6019;SDS011;3038;51.122;6.840;2022-11-23T06:55:31;4.90;;;1.87;;
6019;SDS011;3038;51.122;6.840;2022-11-23T06:58:16;5.80;;;2.37;;
6019;SDS011;3038;51.122;6.840;2022-11-23T07:00:41;4.03;;;1.90;;
6019;SDS011;3038;51.122;6.840;2022-11-23T07:03:23;6.27;;;2.00;;
6019;SDS011;3038;51.122;6.840;2022-11-23T07:06:06;6.10;;;2.80;;
6019;SDS011;3038;51.122;6.840;2022-11-23T07:08:39;3.80;;;1.97;;
6019;SDS011;3038;51.122;6.840;2022-11-23T07:11:08;6.03;;;1.90;;
6019;SDS011;3038;51.122;6.840;2022-11-23T07:13:54;3.80;;;2.37;;
6019;SDS011;3038;51.122;6.840;2022-11-23T07:16:22;4.80;;;1.93;;
6019;SDS011;3038;51.122;6.840;2022-11-23T07:19:00;4.73;;;2.20;;
6019;SDS011;3038;51.122;6.840;2022-11-23T07:21:34;4.83;;;2.23;;
6019;SDS011;3038;51.122;6.840;2022-11-23T07:23:59;6.07;;;2.10;;
6019;SDS011;3038;51.122;6.840;2022-11-23T07:26:28;5.97;;;2.30;;
6019;SDS011;3038;51.122;6.840;2022-11-23T07:29:10;4.10;;;2.07;;
6019;SDS011;3038;51.122;6.840;2022-11-23T07:31:39;5.80;;;2.00;;
6019;SDS011;3038;51.122;6.840;2022-11-23T07:34:14;4.87;;;2.23;;
6019;SDS011;3038;51.122;6.840;2022-11-23T07:36:42;7.80;;;2.20;;
6019;SDS011;3038;51.122;6.840;2022-11-23T07:39:11;4.17;;;2.07;;
6019;SDS011;3038;51.122;6.840;2022-11-23T07:41:48;4.03;;;2.00;;
6019;SDS011;3038;51.122;6.840;2022-11-23T07:44:37;6.00;;;1.83;;
6019;SDS011;3038;51.122;6.840;2022-11-23T07:47:12;5.90;;;2.37;;
6019;SDS011;3038;51.122;6.840;2022-11-23T07:50:19;3.70;;;2.00;;
6019;SDS011;3038;51.122;6.840;2022-11-23T07:52:51;3.60;;;2.37;;
6019;SDS011;3038;51.122;6.840;2022-11-23T07:55:20;6.77;;;2.60;;
6019;SDS011;3038;51.122;6.840;2022-11-23T07:58:08;7.87;;;2.60;;
6019;SDS011;3038;51.122;6.840;2022-11-23T08:00:34;6.87;;;2.70;;
6019;SDS011;3038;51.122;6.840;2022-11-23T08:07:06;4.00;;;2.20;;
6019;SDS011;3038;51.122;6.840;2022-11-23T08:09:46;6.67;;;2.30;;
6019;SDS011;3038;51.122;6.840;2022-11-23T08:12:12;8.33;;;2.40;;
6019;SDS011;3038;51.122;6.840;2022-11-23T08:14:41;2.60;;;2.10;;
6019;SDS011;3038;51.122;6.840;2022-11-23T08:17:19;6.80;;;2.37;;
6019;SDS011;3038;51.122;6.840;2022-11-23T08:19:51;5.70;;;2.27;;
6019;SDS011;3038;51.122;6.840;2022-11-23T08:23:35;2.70;;;1.90;;
6019;SDS011;3038;51.122;6.840;2022-11-23T08:26:34;7.70;;;2.23;;
6019;SDS011;3038;51.122;6.840;2022-11-23T08:29:01;6.90;;;2.63;;
6019;SDS011;3038;51.122;6.840;2022-11-23T08:31:27;8.93;;;3.37;;
6019;SDS011;3038;51.122;6.840;2022-11-23T08:33:53;7.50;;;2.23;;
6019;SDS011;3038;51.122;6.840;2022-11-23T08:36:36;10.57;;;2.20;;
6019;SDS011;3038;51.122;6.840;2022-11-23T08:39:21;7.67;;;3.07;;
6019;SDS011;3038;51.122;6.840;2022-11-23T08:41:57;10.37;;;2.17;;
6019;SDS011;3038;51.122;6.840;2022-11-23T08:44:39;10.53;;;2.60;;
6019;SDS011;3038;51.122;6.840;2022-11-23T08:47:05;6.00;;;2.70;;
6019;SDS011;3038;51.122;6.840;2022-11-23T08:49:30;4.80;;;2.47;;
6019;SDS011;3038;51.122;6.840;2022-11-23T08:51:56;6.30;;;2.30;;
6019;SDS011;3038;51.122;6.840;2022-11-23T08:54:22;7.07;;;2.53;;
6019;SDS011;3038;51.122;6.840;2022-11-23T08:56:49;5.80;;;2.53;;
6019;SDS011;3038;51.122;6.840;2022-11-23T08:59:15;5.73;;;2.70;;
6019;SDS011;3038;51.122;6.840;2022-11-23T09:02:03;8.90;;;3.30;;
6019;SDS011;3038;51.122;6.840;2022-11-23T09:04:32;6.73;;;2.40;;
6019;SDS011;3038;51.122;6.840;2022-11-23T09:07:09;5.57;;;3.33;;
6019;SDS011;3038;51.122;6.840;2022-11-23T09:09:43;6.30;;;3.03;;
6019;SDS011;3038;51.122;6.840;2022-11-23T09:12:23;5.70;;;2.33;;
6019;SDS011;3038;51.122;6.840;2022-11-23T09:14:56;6.00;;;2.47;;
6019;SDS011;3038;51.122;6.840;2022-11-23T09:17:52;6.53;;;2.40;;
6019;SDS011;3038;51.122;6.840;2022-11-23T09:23:36;6.20;;;2.70;;
6019;SDS011;3038;51.122;6.840;2022-11-23T09:26:26;7.67;;;2.73;;
6019;SDS011;3038;51.122;6.840;2022-11-23T09:28:52;5.43;;;2.37;;
6019;SDS011;3038;51.122;6.840;2022-11-23T09:31:17;8.10;;;2.47;;
6019;SDS011;3038;51.122;6.840;2022-11-23T09:33:42;7.97;;;2.87;;
6019;SDS011;3038;51.122;6.840;2022-11-23T09:36:08;7.67;;;3.27;;
6019;SDS011;3038;51.122;6.840;2022-11-23T09:38:33;6.17;;;1.63;;
6019;SDS011;3038;51.122;6.840;2022-11-23T09:44:05;6.20;;;2.30;;
6019;SDS011;3038;51.122;6.840;2022-11-23T09:49:42;10.07;;;3.10;;
6019;SDS011;3038;51.122;6.840;2022-11-23T09:52:18;8.77;;;3.40;;
6019;SDS011;3038;51.122;6.840;2022-11-23T09:54:47;7.40;;;3.73;;
6019;SDS011;3038;51.122;6.840;2022-11-23T09:57:18;6.03;;;2.63;;
6019;SDS011;3038;51.122;6.840;2022-11-23T09:59:52;8.53;;;3.23;;
6019;SDS011;3038;51.122;6.840;2022-11-23T10:02:24;6.37;;;2.43;;
6019;SDS011;3038;51.122;6.840;2022-11-23T10:04:52;4.50;;;1.83;;
6019;SDS011;3038;51.122;6.840;2022-11-23T10:12:32;4.90;;;2.27;;
6019;SDS011;3038;51.122;6.840;2022-11-23T10:15:19;7.83;;;2.40;;
6019;SDS011;3038;51.122;6.840;2022-11-23T10:23:50;7.33;;;2.70;;
6019;SDS011;3038;51.122;6.840;2022-11-23T10:26:22;5.70;;;2.53;;
6019;SDS011;3038;51.122;6.840;2022-11-23T10:28:52;8.80;;;3.40;;
6019;SDS011;3038;51.122;6.840;2022-11-23T10:31:19;12.67;;;2.60;;
6019;SDS011;3038;51.122;6.840;2022-11-23T10:33:54;5.43;;;1.90;;
6019;SDS011;3038;51.122;6.840;2022-11-23T10:36:20;6.10;;;2.20;;
6019;SDS011;3038;51.122;6.840;2022-11-23T10:38:48;6.27;;;2.73;;
6019;SDS011;3038;51.122;6.840;2022-11-23T10:41:16;10.73;;;2.23;;
6019;SDS011;3038;51.122;6.840;2022-11-23T10:46:52;12.47;;;3.20;;
6019;SDS011;3038;51.122;6.840;2022-11-23T10:51:49;5.63;;;2.20;;
6019;SDS011;3038;51.122;6.840;2022-11-23T10:57:02;11.00;;;2.53;;
6019;SDS011;3038;51.122;6.840;2022-11-23T10:59:48;6.23;;;2.20;;
6019;SDS011;3038;51.122;6.840;2022-11-23T11:02:22;9.03;;;2.33;;
6019;SDS011;3038;51.122;6.840;2022-11-23T11:04:48;7.70;;;2.00;;
6019;SDS011;3038;51.122;6.840;2022-11-23T11:09:50;4.90;;;2.50;;
6019;SDS011;3038;51.122;6.840;2022-11-23T11:12:18;4.83;;;2.23;;
6019;SDS011;3038;51.122;6.840;2022-11-23T11:14:53;5.90;;;2.17;;
6019;SDS011;3038;51.122;6.840;2022-11-23T11:17:27;5.27;;;2.03;;
6019;SDS011;3038;51.122;6.840;2022-11-23T11:19:55;6.40;;;2.87;;
6019;SDS011;3038;51.122;6.840;2022-11-23T11:22:41;4.70;;;2.07;;
6019;SDS011;3038;51.122;6.840;2022-11-23T11:25:06;6.27;;;2.40;;
6019;SDS011;3038;51.122;6.840;2022-11-23T11:27:50;4.00;;;1.80;;
6019;SDS011;3038;51.122;6.840;2022-11-23T11:30:19;3.63;;;1.70;;
6019;SDS011;3038;51.122;6.840;2022-11-23T11:33:00;5.17;;;2.00;;
6019;SDS011;3038;51.122;6.840;2022-11-23T11:35:30;5.53;;;1.60;;
6019;SDS011;3038;51.122;6.840;2022-11-23T11:41:04;4.47;;;1.93;;
6019;SDS011;3038;51.122;6.840;2022-11-23T11:43:37;9.00;;;2.40;;
6019;SDS011;3038;51.122;6.840;2022-11-23T11:46:14;14.00;;;2.20;;
6019;SDS011;3038;51.122;6.840;2022-11-23T11:48:42;7.57;;;1.70;;
6019;SDS011;3038;51.122;6.840;2022-11-23T11:51:19;8.23;;;2.23;;
6019;SDS011;3038;51.122;6.840;2022-11-23T11:54:34;7.47;;;2.20;;
6019;SDS011;3038;51.122;6.840;2022-11-23T11:57:27;4.23;;;2.03;;
6019;SDS011;3038;51.122;6.840;2022-11-23T11:59:44;3.87;;;1.87;;
6019;SDS011;3038;51.122;6.840;2022-11-23T12:04:59;4.53;;;2.50;;
6019;SDS011;3038;51.122;6.840;2022-11-23T12:10:59;4.00;;;1.60;;
6019;SDS011;3038;51.122;6.840;2022-11-23T12:13:31;5.37;;;1.57;;
6019;SDS011;3038;51.122;6.840;2022-11-23T12:29:26;4.23;;;1.80;;
6019;SDS011;3038;51.122;6.840;2022-11-23T12:43:31;3.83;;;2.00;;
6019;SDS011;3038;51.122;6.840;2022-11-23T12:51:57;5.97;;;1.97;;
6019;SDS011;3038;51.122;6.840;2022-11-23T12:57:17;2.97;;;1.40;;
6019;SDS011;3038;51.122;6.840;2022-11-23T13:02:29;2.60;;;1.80;;
6019;SDS011;3038;51.122;6.840;2022-11-23T13:05:23;4.10;;;2.03;;
6019;SDS011;3038;51.122;6.840;2022-11-23T13:08:23;4.07;;;1.80;;
6019;SDS011;3038;51.122;6.840;2022-11-23T13:11:08;4.50;;;1.70;;
6019;SDS011;3038;51.122;6.840;2022-11-23T13:22:20;5.90;;;1.90;;
6019;SDS011;3038;51.122;6.840;2022-11-23T13:33:23;3.20;;;1.80;;
6019;SDS011;3038;51.122;6.840;2022-11-23T13:35:55;3.40;;;1.80;;
6019;SDS011;3038;51.122;6.840;2022-11-23T13:38:23;4.20;;;1.70;;
6019;SDS011;3038;51.122;6.840;2022-11-23T13:40:50;4.47;;;1.93;;
6019;SDS011;3038;51.122;6.840;2022-11-23T13:48:40;4.20;;;1.93;;
6019;SDS011;3038;51.122;6.840;2022-11-23T13:51:08;3.87;;;1.97;;
6019;SDS011;3038;51.122;6.840;2022-11-23T13:53:35;8.57;;;2.97;;
6019;SDS011;3038;51.122;6.840;2022-11-23T13:56:22;3.43;;;2.30;;
6019;SDS011;3038;51.122;6.840;2022-11-23T13:58:54;6.30;;;2.40;;
6019;SDS011;3038;51.122;6.840;2022-11-23T14:04:31;2.87;;;1.60;;
6019;SDS011;3038;51.122;6.840;2022-11-23T14:07:03;4.50;;;1.80;;
6019;SDS011;3038;51.122;6.840;2022-11-23T14:12:44;2.50;;;2.20;;
6019;SDS011;3038;51.122;6.840;2022-11-23T14:15:19;3.80;;;2.83;;
6019;SDS011;3038;51.122;6.840;2022-11-23T14:18:14;7.10;;;2.67;;
6019;SDS011;3038;51.122;6.840;2022-11-23T14:21:00;2.73;;;2.20;;
6019;SDS011;3038;51.122;6.840;2022-11-23T14:29:45;5.37;;;2.30;;
6019;SDS011;3038;51.122;6.840;2022-11-23T14:32:00;5.20;;;2.30;;
6019;SDS011;3038;51.122;6.840;2022-11-23T14:37:31;6.57;;;2.63;;
6019;SDS011;3038;51.122;6.840;2022-11-23T14:42:53;2.87;;;2.23;;
6019;SDS011;3038;51.122;6.840;2022-11-23T14:45:21;3.77;;;2.50;;
6019;SDS011;3038;51.122;6.840;2022-11-23T14:47:54;4.50;;;4.10;;
6019;SDS011;3038;51.122;6.840;2022-11-23T14:50:24;3.37;;;2.40;;
6019;SDS011;3038;51.122;6.840;2022-11-23T14:52:59;4.93;;;2.20;;
6019;SDS011;3038;51.122;6.840;2022-11-23T14:55:31;5.40;;;2.80;;
6019;SDS011;3038;51.122;6.840;2022-11-23T14:58:04;3.73;;;2.30;;
6019;SDS011;3038;51.122;6.840;2022-11-23T15:00:34;4.80;;;2.20;;
6019;SDS011;3038;51.122;6.840;2022-11-23T15:03:07;5.20;;;2.90;;
6019;SDS011;3038;51.122;6.840;2022-11-23T15:06:00;6.77;;;2.20;;
6019;SDS011;3038;51.122;6.840;2022-11-23T15:15:35;3.83;;;2.17;;
6019;SDS011;3038;51.122;6.840;2022-11-23T15:18:33;5.50;;;2.80;;
6019;SDS011;3038;51.122;6.840;2022-11-23T15:21:48;5.40;;;2.23;;
6019;SDS011;3038;51.122;6.840;2022-11-23T15:23:55;3.10;;;2.40;;
6019;SDS011;3038;51.122;6.840;2022-11-23T15:27:01;4.90;;;2.60;;
6019;SDS011;3038;51.122;6.840;2022-11-23T15:29:48;6.73;;;3.10;;
6019;SDS011;3038;51.122;6.840;2022-11-23T15:38:52;3.60;;;2.70;;
6019;SDS011;3038;51.122;6.840;2022-11-23T15:41:24;9.67;;;3.30;;
6019;SDS011;3038;51.122;6.840;2022-11-23T15:43:55;6.10;;;2.93;;
6019;SDS011;3038;51.122;6.840;2022-11-23T15:46:46;4.47;;;3.60;;
6019;SDS011;3038;51.122;6.840;2022-11-23T15:50:06;3.53;;;2.40;;
6019;SDS011;3038;51.122;6.840;2022-11-23T15:52:38;7.30;;;5.30;;
6019;SDS011;3038;51.122;6.840;2022-11-23T15:55:18;5.70;;;2.70;;
6019;SDS011;3038;51.122;6.840;2022-11-23T15:58:05;7.33;;;4.83;;
6019;SDS011;3038;51.122;6.840;2022-11-23T16:03:51;4.53;;;2.57;;
6019;SDS011;3038;51.122;6.840;2022-11-23T16:06:41;9.17;;;2.27;;
6019;SDS011;3038;51.122;6.840;2022-11-23T16:09:35;5.77;;;2.67;;
6019;SDS011;3038;51.122;6.840;2022-11-23T16:12:02;6.50;;;4.03;;
6019;SDS011;3038;51.122;6.840;2022-11-23T16:14:49;3.60;;;2.40;;
6019;SDS011;3038;51.122;6.840;2022-11-23T16:17:19;7.10;;;2.97;;
6019;SDS011;3038;51.122;6.840;2022-11-23T16:19:53;7.87;;;3.43;;
6019;SDS011;3038;51.122;6.840;2022-11-23T16:27:42;10.67;;;3.17;;
6019;SDS011;3038;51.122;6.840;2022-11-23T16:33:19;7.20;;;3.53;;
6019;SDS011;3038;51.122;6.840;2022-11-23T16:35:45;8.67;;;3.50;;
6019;SDS011;3038;51.122;6.840;2022-11-23T16:41:17;7.10;;;3.80;;
6019;SDS011;3038;51.122;6.840;2022-11-23T16:43:51;5.83;;;3.30;;
6019;SDS011;3038;51.122;6.840;2022-11-23T16:46:18;4.93;;;3.23;;
6019;SDS011;3038;51.122;6.840;2022-11-23T16:48:47;6.00;;;3.37;;
6019;SDS011;3038;51.122;6.840;2022-11-23T16:51:18;9.73;;;3.80;;
6019;SDS011;3038;51.122;6.840;2022-11-23T16:53:56;5.47;;;4.20;;
6019;SDS011;3038;51.122;6.840;2022-11-23T16:56:25;5.17;;;3.97;;
6019;SDS011;3038;51.122;6.840;2022-11-23T16:58:51;8.23;;;3.97;;
6019;SDS011;3038;51.122;6.840;2022-11-23T17:01:31;5.40;;;3.13;;
6019;SDS011;3038;51.122;6.840;2022-11-23T17:04:16;6.23;;;3.90;;
6019;SDS011;3038;51.122;6.840;2022-11-23T17:06:53;8.37;;;3.63;;
6019;SDS011;3038;51.122;6.840;2022-11-23T17:09:25;7.13;;;3.77;;
6019;SDS011;3038;51.122;6.840;2022-11-23T17:12:15;6.87;;;4.50;;
6019;SDS011;3038;51.122;6.840;2022-11-23T17:14:47;4.33;;;3.23;;
6019;SDS011;3038;51.122;6.840;2022-11-23T17:17:19;4.67;;;3.60;;
6019;SDS011;3038;51.122;6.840;2022-11-23T17:20:15;5.53;;;4.40;;
6019;SDS011;3038;51.122;6.840;2022-11-23T17:22:57;7.00;;;3.60;;
6019;SDS011;3038;51.122;6.840;2022-11-23T17:25:32;4.50;;;2.50;;
6019;SDS011;3038;51.122;6.840;2022-11-23T17:29:17;4.87;;;1.90;;
6019;SDS011;3038;51.122;6.840;2022-11-23T17:32:21;3.73;;;2.30;;
6019;SDS011;3038;51.122;6.840;2022-11-23T17:34:54;3.67;;;2.07;;
6019;SDS011;3038;51.122;6.840;2022-11-23T17:37:26;2.80;;;1.70;;
6019;SDS011;3038;51.122;6.840;2022-11-23T17:40:27;2.20;;;1.57;;
6019;SDS011;3038;51.122;6.840;2022-11-23T17:43:19;3.30;;;1.90;;
6019;SDS011;3038;51.122;6.840;2022-11-23T17:45:59;3.10;;;1.80;;
6019;SDS011;3038;51.122;6.840;2022-11-23T17:49:10;3.00;;;1.80;;
6019;SDS011;3038;51.122;6.840;2022-11-23T17:51:38;2.70;;;1.80;;
6019;SDS011;3038;51.122;6.840;2022-11-23T17:54:07;2.70;;;1.67;;
6019;SDS011;3038;51.122;6.840;2022-11-23T17:56:33;2.97;;;1.70;;
6019;SDS011;3038;51.122;6.840;2022-11-23T17:59:05;1.90;;;1.37;;
6019;SDS011;3038;51.122;6.840;2022-11-23T18:01:47;4.00;;;1.43;;
6019;SDS011;3038;51.122;6.840;2022-11-23T18:04:19;2.70;;;2.00;;
6019;SDS011;3038;51.122;6.840;2022-11-23T18:06:55;2.17;;;1.80;;
6019;SDS011;3038;51.122;6.840;2022-11-23T18:09:44;3.27;;;2.00;;
6019;SDS011;3038;51.122;6.840;2022-11-23T18:12:19;3.40;;;1.90;;
6019;SDS011;3038;51.122;6.840;2022-11-23T18:14:49;4.10;;;2.33;;
6019;SDS011;3038;51.122;6.840;2022-11-23T18:17:23;3.93;;;2.37;;
6019;SDS011;3038;51.122;6.840;2022-11-23T18:19:49;6.13;;;2.47;;
6019;SDS011;3038;51.122;6.840;2022-11-23T18:22:24;2.47;;;2.10;;
6019;SDS011;3038;51.122;6.840;2022-11-23T18:25:11;4.40;;;2.53;;
6019;SDS011;3038;51.122;6.840;2022-11-23T18:27:39;4.60;;;2.57;;
6019;SDS011;3038;51.122;6.840;2022-11-23T18:30:12;3.13;;;2.33;;
6019;SDS011;3038;51.122;6.840;2022-11-23T18:32:43;3.60;;;3.10;;
6019;SDS011;3038;51.122;6.840;2022-11-23T18:35:15;3.87;;;2.70;;
6019;SDS011;3038;51.122;6.840;2022-11-23T18:37:44;4.00;;;2.90;;
6019;SDS011;3038;51.122;6.840;2022-11-23T18:40:24;5.07;;;3.10;;
6019;SDS011;3038;51.122;6.840;2022-11-23T18:42:50;4.57;;;3.40;;
6019;SDS011;3038;51.122;6.840;2022-11-23T18:45:18;3.03;;;2.83;;
6019;SDS011;3038;51.122;6.840;2022-11-23T18:47:56;10.00;;;5.37;;
6019;SDS011;3038;51.122;6.840;2022-11-23T18:50:41;7.53;;;4.40;;
6019;SDS011;3038;51.122;6.840;2022-11-23T18:53:19;8.20;;;3.60;;
6019;SDS011;3038;51.122;6.840;2022-11-23T18:55:45;9.73;;;4.60;;
6019;SDS011;3038;51.122;6.840;2022-11-23T18:58:14;6.03;;;3.50;;
6019;SDS011;3038;51.122;6.840;2022-11-23T19:00:45;11.10;;;4.27;;
6019;SDS011;3038;51.122;6.840;2022-11-23T19:03:22;5.30;;;4.30;;
6019;SDS011;3038;51.122;6.840;2022-11-23T19:05:48;8.97;;;3.63;;
6019;SDS011;3038;51.122;6.840;2022-11-23T19:08:19;9.93;;;4.87;;
6019;SDS011;3038;51.122;6.840;2022-11-23T19:10:48;5.67;;;3.93;;
6019;SDS011;3038;51.122;6.840;2022-11-23T19:13:17;5.40;;;4.57;;
6019;SDS011;3038;51.122;6.840;2022-11-23T19:15:43;6.00;;;4.73;;
6019;SDS011;3038;51.122;6.840;2022-11-23T19:18:29;7.20;;;4.60;;
6019;SDS011;3038;51.122;6.840;2022-11-23T19:20:58;11.40;;;4.77;;
6019;SDS011;3038;51.122;6.840;2022-11-23T19:23:24;6.70;;;4.20;;
6019;SDS011;3038;51.122;6.840;2022-11-23T19:25:59;5.67;;;4.73;;
6019;SDS011;3038;51.122;6.840;2022-11-23T19:28:26;6.00;;;4.77;;
6019;SDS011;3038;51.122;6.840;2022-11-23T19:30:52;6.67;;;4.70;;
6019;SDS011;3038;51.122;6.840;2022-11-23T19:33:25;5.00;;;4.50;;
6019;SDS011;3038;51.122;6.840;2022-11-23T19:42:05;7.23;;;4.83;;
6019;SDS011;3038;51.122;6.840;2022-11-23T19:44:34;5.30;;;4.80;;
6019;SDS011;3038;51.122;6.840;2022-11-23T19:47:07;7.37;;;4.90;;
6019;SDS011;3038;51.122;6.840;2022-11-23T19:49:56;6.13;;;4.53;;
6019;SDS011;3038;51.122;6.840;2022-11-23T19:52:33;5.63;;;4.90;;
6019;SDS011;3038;51.122;6.840;2022-11-23T19:54:59;6.47;;;5.20;;
6019;SDS011;3038;51.122;6.840;2022-11-23T19:57:41;8.90;;;5.07;;
6019;SDS011;3038;51.122;6.840;2022-11-23T20:00:07;8.30;;;5.40;;
6019;SDS011;3038;51.122;6.840;2022-11-23T20:02:34;6.40;;;5.10;;
6019;SDS011;3038;51.122;6.840;2022-11-23T20:05:06;6.53;;;4.83;;
6019;SDS011;3038;51.122;6.840;2022-11-23T20:07:35;9.03;;;5.13;;
6019;SDS011;3038;51.122;6.840;2022-11-23T20:10:04;8.60;;;4.87;;
6019;SDS011;3038;51.122;6.840;2022-11-23T20:12:33;6.53;;;5.40;;
6019;SDS011;3038;51.122;6.840;2022-11-23T20:15:05;5.20;;;4.77;;
6019;SDS011;3038;51.122;6.840;2022-11-23T20:17:36;6.57;;;5.97;;
6019;SDS011;3038;51.122;6.840;2022-11-23T20:20:12;8.23;;;5.90;;
6019;SDS011;3038;51.122;6.840;2022-11-23T20:22:50;8.33;;;6.00;;
6019;SDS011;3038;51.122;6.840;2022-11-23T20:25:19;6.80;;;5.47;;
6019;SDS011;3038;51.122;6.840;2022-11-23T20:27:50;6.77;;;5.43;;
6019;SDS011;3038;51.122;6.840;2022-11-23T20:32:58;7.70;;;6.90;;
6019;SDS011;3038;51.122;6.840;2022-11-23T20:35:39;6.47;;;5.13;;
6019;SDS011;3038;51.122;6.840;2022-11-23T20:42:27;9.83;;;6.00;;